Time;durP1;ratioP1;P1;durP2;ratioP2;P2;SDS_P1;SDS_P2;PMS_P1;PMS_P2;Temp;Humidity;BMP_temperature;BMP_pressure;BME280_temperature;BME280_humidity;BME280_pressure;Samples;Min_cycle;Max_cycle;Signal;HPM_P1;HPM_P2
2022/11/25 00:01:17;;;;;;;12.25;3.13;;;7.50;99.90;;;;;;5136660;27;20473;-65
2022/11/25 00:03:44;;;;;;;16.27;3.88;;;7.60;99.90;;;;;;5136765;27;20035;-65
2022/11/25 00:06:28;;;;;;;14.73;3.90;;;7.50;99.90;;;;;;5118671;27;20118;-65
2022/11/25 00:09:00;;;;;;;16.88;3.67;;;7.60;99.90;;;;;;5136678;27;20027;-65
2022/11/25 00:11:26;;;;;;;19.67;4.28;;;7.50;99.90;;;;;;5136718;27;20050;-65
2022/11/25 00:13:52;;;;;;;17.80;4.15;;;7.70;99.90;;;;;;5136732;27;20062;-65
2022/11/25 00:16:20;;;;;;;18.63;3.58;;;7.60;99.90;;;;;;5136545;27;20477;-65
2022/11/25 00:18:50;;;;;;;16.45;4.00;;;7.50;99.90;;;;;;5136550;27;20082;-65
2022/11/25 00:21:18;;;;;;;16.42;3.88;;;7.60;99.90;;;;;;5136540;27;20050;-66
2022/11/25 00:23:49;;;;;;;11.45;3.38;;;7.60;99.90;;;;;;5136935;27;20039;-66
2022/11/25 00:26:15;;;;;;;15.35;3.30;;;7.80;99.90;;;;;;5094371;28;20101;-65
2022/11/25 00:28:43;;;;;;;15.63;3.85;;;7.60;99.90;;;;;;5095462;28;20048;-65
2022/11/25 00:31:17;;;;;;;10.23;3.20;;;7.70;99.90;;;;;;5095453;28;20036;-65
2022/11/25 00:33:44;;;;;;;16.40;3.30;;;7.70;99.90;;;;;;5095241;28;20509;-65
2022/11/25 00:36:34;;;;;;;16.25;3.75;;;7.70;99.90;;;;;;5095393;28;20123;-66
2022/11/25 00:39:05;;;;;;;19.20;3.90;;;7.70;99.90;;;;;;5013064;28;20483;-65
2022/11/25 00:44:35;;;;;;;14.95;3.55;;;7.70;99.90;;;;;;5012842;28;20046;-66
2022/11/25 00:47:09;;;;;;;16.42;3.60;;;7.80;99.90;;;;;;4996533;28;20476;-66
2022/11/25 00:49:35;;;;;;;25.02;4.15;;;7.70;99.90;;;;;;5012799;28;20045;-65
2022/11/25 00:52:02;;;;;;;18.88;3.80;;;7.70;99.90;;;;;;5012734;28;20123;-66
2022/11/25 00:54:28;;;;;;;14.93;3.40;;;7.70;99.90;;;;;;5012342;28;20038;-65
2022/11/25 00:56:53;;;;;;;19.83;4.55;;;7.70;99.90;;;;;;5012791;28;20060;-65
2022/11/25 00:59:19;;;;;;;15.75;4.25;;;7.80;99.90;;;;;;5011299;28;20104;-65
2022/11/25 01:01:45;;;;;;;18.00;4.10;;;7.70;99.90;;;;;;5012514;28;20053;-65
2022/11/25 01:04:11;;;;;;;20.92;3.60;;;7.70;99.90;;;;;;5012055;28;20057;-66
2022/11/25 01:06:37;;;;;;;19.00;4.80;;;7.70;99.90;;;;;;5012588;28;20045;-65
2022/11/25 01:09:04;;;;;;;14.95;3.85;;;7.70;99.90;;;;;;5012515;28;20046;-66
2022/11/25 01:11:30;;;;;;;16.85;4.65;;;7.70;99.90;;;;;;5012441;28;20046;-66
2022/11/25 01:13:57;;;;;;;19.20;4.78;;;7.60;99.90;;;;;;5012515;28;20077;-66
2022/11/25 01:16:23;;;;;;;16.38;4.72;;;7.60;99.90;;;;;;5054232;28;20064;-66
2022/11/25 01:18:49;;;;;;;18.98;4.22;;;7.90;99.90;;;;;;5074309;28;20036;-66
2022/11/25 01:21:24;;;;;;;18.38;4.35;;;7.60;99.90;;;;;;5074092;28;20399;-66
2022/11/25 01:23:51;;;;;;;18.20;4.82;;;7.60;99.90;;;;;;5073832;28;20036;-66
2022/11/25 01:26:19;;;;;;;20.35;4.20;;;7.60;99.90;;;;;;5090012;28;20059;-65
2022/11/25 01:28:46;;;;;;;18.98;4.45;;;7.60;99.90;;;;;;5094095;28;20048;-65
2022/11/25 01:31:13;;;;;;;17.33;4.10;;;7.60;99.90;;;;;;5094097;28;20535;-65
2022/11/25 01:33:39;;;;;;;17.50;5.13;;;7.60;99.90;;;;;;5093909;28;20083;-66
2022/11/25 01:36:08;;;;;;;20.55;4.80;;;7.50;99.90;;;;;;5093984;28;20040;-65
2022/11/25 01:38:35;;;;;;;21.05;5.03;;;7.50;99.90;;;;;;5094013;28;20058;-66
2022/11/25 01:41:01;;;;;;;21.60;4.22;;;7.50;99.90;;;;;;5093992;28;20032;-65
2022/11/25 01:43:27;;;;;;;17.77;5.03;;;7.50;99.90;;;;;;5093930;28;20032;-66
2022/11/25 01:46:06;;;;;;;15.20;4.03;;;7.50;99.90;;;;;;5093750;28;20085;-65
2022/11/25 01:48:40;;;;;;;23.20;5.00;;;7.50;99.90;;;;;;5093805;28;20059;-65
2022/11/25 01:51:34;;;;;;;11.88;3.95;;;7.50;99.90;;;;;;5093929;28;20068;-65
2022/11/25 01:54:04;;;;;;;17.70;4.95;;;7.50;99.90;;;;;;5011600;28;20488;-65
2022/11/25 01:56:34;;;;;;;17.88;4.65;;;7.50;99.90;;;;;;5011736;28;20061;-65
2022/11/25 01:59:01;;;;;;;16.30;4.18;;;7.50;99.90;;;;;;5011399;28;20552;-65
2022/11/25 02:01:27;;;;;;;20.27;5.15;;;7.60;99.90;;;;;;5011575;28;20045;-66
2022/11/25 02:03:55;;;;;;;20.00;5.45;;;7.60;99.90;;;;;;5011410;28;20053;-65
2022/11/25 02:06:33;;;;;;;16.13;3.97;;;7.50;99.90;;;;;;5010804;28;20522;-65
2022/11/25 02:09:04;;;;;;;20.33;4.50;;;7.60;99.90;;;;;;5011296;28;20602;-64
2022/11/25 02:11:32;;;;;;;19.73;4.43;;;7.60;99.90;;;;;;5011327;28;20046;-65
2022/11/25 02:13:58;;;;;;;23.05;4.60;;;7.60;99.90;;;;;;5011296;28;20124;-65
2022/11/25 02:16:24;;;;;;;17.60;4.10;;;7.60;99.90;;;;;;5011214;28;20038;-65
2022/11/25 02:18:50;;;;;;;20.77;5.18;;;7.70;99.90;;;;;;5011210;28;20416;-65
2022/11/25 02:21:25;;;;;;;15.85;4.70;;;7.60;99.90;;;;;;5011146;28;20443;-65
2022/11/25 02:23:59;;;;;;;15.38;4.55;;;7.60;99.90;;;;;;4994818;28;20128;-66
2022/11/25 02:26:24;;;;;;;21.88;4.68;;;7.60;99.90;;;;;;5010984;28;20132;-65
2022/11/25 02:28:50;;;;;;;22.00;5.22;;;7.60;99.90;;;;;;5011127;28;20556;-66
2022/11/25 02:31:20;;;;;;;21.25;5.05;;;7.60;99.90;;;;;;5061875;28;20135;-66
2022/11/25 02:33:45;;;;;;;20.45;4.55;;;7.60;99.90;;;;;;5093102;28;20044;-65
2022/11/25 02:36:17;;;;;;;15.90;5.53;;;7.60;99.90;;;;;;5093079;28;20036;-65
2022/11/25 02:38:51;;;;;;;17.25;4.47;;;7.50;99.90;;;;;;5092808;28;20043;-65
2022/11/25 02:41:37;;;;;;;20.73;5.00;;;7.60;99.90;;;;;;5093253;28;20036;-65
2022/11/25 02:44:03;;;;;;;18.13;5.53;;;7.60;99.90;;;;;;5092912;28;20036;-65
2022/11/25 02:46:30;;;;;;;20.83;5.53;;;7.50;99.90;;;;;;5092829;28;20094;-66
2022/11/25 02:48:57;;;;;;;27.45;4.88;;;7.60;99.90;;;;;;5092594;28;20046;-66
2022/11/25 02:51:25;;;;;;;17.65;5.13;;;7.60;99.90;;;;;;5093331;28;20032;-65
2022/11/25 02:53:51;;;;;;;22.65;4.95;;;7.60;99.90;;;;;;5092573;28;20035;-66
2022/11/25 02:56:19;;;;;;;25.95;5.85;;;7.50;99.90;;;;;;5092603;28;20039;-66
2022/11/25 02:58:44;;;;;;;21.38;4.68;;;7.60;99.90;;;;;;5092589;28;20093;-66
2022/11/25 03:01:10;;;;;;;16.23;4.95;;;7.50;99.90;;;;;;5092308;28;20028;-65
2022/11/25 03:03:36;;;;;;;19.13;5.00;;;7.50;99.90;;;;;;5092601;28;20062;-65
2022/11/25 03:06:02;;;;;;;13.65;4.75;;;7.60;99.90;;;;;;5092644;28;20443;-65
2022/11/25 03:08:28;;;;;;;24.00;5.85;;;7.70;99.90;;;;;;5092547;28;20031;-65
2022/11/25 03:10:53;;;;;;;21.13;5.53;;;7.70;99.90;;;;;;5092422;28;20032;-65
2022/11/25 03:13:20;;;;;;;22.52;5.80;;;7.70;99.90;;;;;;5092395;28;20455;-64
2022/11/25 03:15:45;;;;;;;20.17;5.63;;;7.60;99.90;;;;;;5092239;28;20044;-66
2022/11/25 03:18:11;;;;;;;19.88;6.05;;;7.80;99.90;;;;;;5092193;28;20046;-66
2022/11/25 03:20:37;;;;;;;22.60;5.50;;;7.70;99.90;;;;;;5092230;28;20123;-66
2022/11/25 03:23:04;;;;;;;21.45;5.32;;;7.60;99.90;;;;;;5092290;28;20044;-65
2022/11/25 03:25:29;;;;;;;21.73;6.03;;;7.70;99.90;;;;;;5091857;28;20506;-66
2022/11/25 03:27:55;;;;;;;21.63;6.97;;;7.70;99.90;;;;;;5092115;28;20051;-66
2022/11/25 03:30:24;;;;;;;18.77;5.90;;;7.70;99.90;;;;;;5092164;28;20043;-66
2022/11/25 03:32:49;;;;;;;22.73;6.27;;;7.70;99.90;;;;;;5091917;28;20367;-65
2022/11/25 03:35:16;;;;;;;19.85;6.60;;;7.80;99.90;;;;;;5092263;28;20339;-65
2022/11/25 03:37:42;;;;;;;20.30;5.65;;;7.80;99.90;;;;;;5092217;28;20067;-66
2022/11/25 03:40:10;;;;;;;24.67;6.38;;;7.90;99.90;;;;;;5092088;28;20077;-66
2022/11/25 03:42:37;;;;;;;21.63;6.17;;;7.70;99.90;;;;;;5091929;28;20474;-65
2022/11/25 03:45:03;;;;;;;20.33;6.82;;;7.80;99.90;;;;;;5091980;28;20040;-65
2022/11/25 03:47:29;;;;;;;24.73;6.55;;;7.80;99.90;;;;;;5091665;28;20043;-66
2022/11/25 03:49:54;;;;;;;19.95;6.97;;;7.80;99.90;;;;;;5091907;28;20386;-65
2022/11/25 03:52:20;;;;;;;21.67;6.63;;;7.80;99.90;;;;;;5092184;28;20075;-64
2022/11/25 03:54:46;;;;;;;21.40;7.20;;;7.90;99.90;;;;;;5092240;28;20063;-66
2022/11/25 03:57:12;;;;;;;18.02;7.28;;;8.00;99.90;;;;;;5091687;28;20036;-66
2022/11/25 03:59:37;;;;;;;28.10;7.35;;;7.90;99.90;;;;;;5073920;28;20044;-66
2022/11/25 04:02:03;;;;;;;24.48;7.50;;;7.90;99.90;;;;;;5091656;28;20050;-65
2022/11/25 04:04:29;;;;;;;20.83;7.32;;;8.00;99.90;;;;;;5091730;28;20093;-66
2022/11/25 04:06:54;;;;;;;21.77;7.28;;;7.80;99.90;;;;;;5091935;28;20110;-65
2022/11/25 04:09:20;;;;;;;23.98;7.03;;;7.90;99.90;;;;;;5073806;28;20039;-65
2022/11/25 04:14:30;;;;;;;21.67;8.02;;;7.90;99.90;;;;;;5091739;28;20114;-66
2022/11/25 04:16:56;;;;;;;31.50;8.85;;;7.90;99.90;;;;;;5073814;28;20039;-66
2022/11/25 04:19:22;;;;;;;18.65;7.88;;;7.80;99.90;;;;;;5073858;28;20044;-65
2022/11/25 04:21:48;;;;;;;29.02;8.35;;;7.80;99.90;;;;;;5092769;28;20044;-64
2022/11/25 04:24:13;;;;;;;22.50;8.20;;;8.00;99.90;;;;;;5091702;28;20471;-64
2022/11/25 04:26:39;;;;;;;24.10;8.35;;;8.00;99.90;;;;;;5091386;28;20060;-63
2022/11/25 04:29:05;;;;;;;24.58;8.82;;;8.00;99.90;;;;;;5092584;28;20191;-62
2022/11/25 04:31:31;;;;;;;21.65;8.20;;;7.90;99.90;;;;;;5077748;28;20067;-63
2022/11/25 04:33:57;;;;;;;29.13;8.93;;;8.00;99.90;;;;;;5095296;28;20115;-64
2022/11/25 04:36:23;;;;;;;23.58;9.10;;;7.90;99.90;;;;;;5095367;28;20119;-64
2022/11/25 04:38:48;;;;;;;24.05;8.25;;;7.90;99.90;;;;;;5095222;28;20131;-64
2022/11/25 04:41:14;;;;;;;22.67;9.27;;;8.00;99.90;;;;;;5095223;28;20071;-63
2022/11/25 04:43:39;;;;;;;23.98;8.82;;;7.90;99.90;;;;;;5095025;28;20071;-63
2022/11/25 04:46:05;;;;;;;31.17;9.23;;;7.90;99.90;;;;;;5095283;28;20035;-64
2022/11/25 04:48:31;;;;;;;21.65;8.55;;;8.00;99.90;;;;;;5095251;28;20394;-63
2022/11/25 04:50:57;;;;;;;20.02;7.75;;;7.90;99.90;;;;;;5095144;28;20047;-64
2022/11/25 04:53:22;;;;;;;20.77;8.60;;;8.00;99.90;;;;;;5095104;28;20043;-63
2022/11/25 04:55:48;;;;;;;22.90;8.73;;;8.00;99.90;;;;;;5094845;28;20383;-64
2022/11/25 04:59:38;;;;;;;22.08;9.18;;;8.10;99.90;;;;;;5094747;28;20082;-64
2022/11/25 05:00:59;;;;;;;32.28;9.88;;;8.00;99.90;;;;;;5094782;28;20040;-64
2022/11/25 05:03:25;;;;;;;24.55;8.65;;;7.90;99.90;;;;;;5094800;28;20044;-63
2022/11/25 05:05:50;;;;;;;21.70;8.57;;;8.00;99.90;;;;;;5095028;28;20036;-64
2022/11/25 05:08:16;;;;;;;19.50;9.25;;;8.10;99.90;;;;;;5094857;28;20043;-64
2022/11/25 05:10:42;;;;;;;26.67;9.75;;;8.00;99.90;;;;;;5094542;28;20097;-65
2022/11/25 05:13:07;;;;;;;26.58;9.70;;;8.00;99.90;;;;;;5076131;28;20508;-64
2022/11/25 05:15:33;;;;;;;32.60;9.63;;;8.00;99.90;;;;;;5094671;28;20036;-64
2022/11/25 05:17:58;;;;;;;32.95;9.30;;;7.90;99.90;;;;;;5094549;28;20442;-65
2022/11/25 05:20:24;;;;;;;28.75;10.02;;;8.10;99.90;;;;;;5094430;28;20123;-64
2022/11/25 05:22:49;;;;;;;20.92;8.93;;;8.10;99.90;;;;;;5094202;28;20059;-64
2022/11/25 05:25:15;;;;;;;26.73;9.27;;;8.10;99.90;;;;;;5111214;28;20040;-65
2022/11/25 05:27:41;;;;;;;27.95;9.30;;;8.00;99.90;;;;;;5114619;28;20167;-64
2022/11/25 05:30:07;;;;;;;23.60;10.00;;;8.10;99.90;;;;;;5114996;28;20077;-65
2022/11/25 05:32:33;;;;;;;24.05;9.80;;;7.90;99.90;;;;;;5114722;28;20045;-65
2022/11/25 05:34:59;;;;;;;20.20;9.20;;;7.90;99.90;;;;;;5114743;28;20119;-65
2022/11/25 05:37:24;;;;;;;27.05;9.82;;;8.00;99.90;;;;;;5114928;28;20094;-65
2022/11/25 05:39:50;;;;;;;29.38;10.55;;;8.00;99.90;;;;;;5114273;28;20039;-64
2022/11/25 05:42:16;;;;;;;28.52;10.40;;;8.00;99.90;;;;;;5113151;28;20117;-64
2022/11/25 05:44:41;;;;;;;23.23;9.35;;;8.10;99.90;;;;;;5114549;28;20043;-65
2022/11/25 05:47:07;;;;;;;25.80;9.80;;;7.90;99.90;;;;;;5114658;28;20038;-65
2022/11/25 05:49:32;;;;;;;28.65;10.40;;;8.00;99.90;;;;;;5114073;28;20067;-64
2022/11/25 05:52:00;;;;;;;27.27;10.07;;;8.10;99.90;;;;;;5114259;28;20067;-64
2022/11/25 05:54:25;;;;;;;26.25;10.10;;;8.00;99.90;;;;;;5114073;28;20112;-64
2022/11/25 05:56:51;;;;;;;25.60;9.35;;;7.90;99.90;;;;;;5113983;28;20466;-65
2022/11/25 05:59:16;;;;;;;30.08;9.95;;;8.00;99.90;;;;;;5114289;28;20489;-65
2022/11/25 06:01:42;;;;;;;30.90;9.77;;;8.00;99.90;;;;;;5113999;28;20043;-65
2022/11/25 06:04:09;;;;;;;22.25;9.80;;;8.00;99.90;;;;;;5113165;28;20494;-65
2022/11/25 06:06:34;;;;;;;27.67;10.32;;;8.00;99.90;;;;;;5113851;28;20036;-65
2022/11/25 06:09:00;;;;;;;26.52;10.30;;;8.10;99.90;;;;;;5113878;28;20181;-64
2022/11/25 06:11:26;;;;;;;24.40;9.23;;;8.10;99.90;;;;;;5113702;28;20040;-65
2022/11/25 06:13:51;;;;;;;28.80;11.23;;;8.00;99.90;;;;;;5113791;28;20032;-65
2022/11/25 06:16:20;;;;;;;27.30;10.07;;;8.10;99.90;;;;;;5113649;28;20146;-65
2022/11/25 06:18:46;;;;;;;24.05;10.27;;;8.10;99.90;;;;;;5113733;28;20382;-65
2022/11/25 06:21:13;;;;;;;32.72;11.52;;;8.30;99.90;;;;;;5113192;28;20032;-65
2022/11/25 06:23:38;;;;;;;27.23;9.77;;;8.00;99.90;;;;;;5113423;28;20039;-64
2022/11/25 06:26:11;;;;;;;25.63;10.25;;;8.10;99.90;;;;;;5113172;28;20050;-65
2022/11/25 06:28:36;;;;;;;21.60;10.30;;;8.00;99.90;;;;;;5113648;28;20048;-65
2022/11/25 06:31:17;;;;;;;28.08;10.00;;;8.00;99.90;;;;;;5095462;28;20039;-64
2022/11/25 06:33:46;;;;;;;23.40;10.23;;;8.20;99.90;;;;;;5113509;28;20096;-65
2022/11/25 06:36:17;;;;;;;;;;;8.20;99.90;;;;;;5113716;28;20077;-64
2022/11/25 06:38:48;;;;;;;24.38;9.45;;;8.10;99.90;;;;;;5113571;28;19915;-65
2022/11/25 06:41:14;;;;;;;22.55;9.70;;;8.00;99.90;;;;;;5113398;28;20035;-65
2022/11/25 06:43:40;;;;;;;24.95;9.60;;;8.20;99.90;;;;;;5113169;28;20078;-66
2022/11/25 06:46:08;;;;;;;22.98;8.38;;;8.20;99.90;;;;;;5094873;28;20473;-65
2022/11/25 06:48:34;;;;;;;35.28;9.43;;;8.20;99.90;;;;;;5113125;28;20110;-65
2022/11/25 06:51:07;;;;;;;21.90;8.80;;;8.10;99.90;;;;;;5113025;28;20040;-65
2022/11/25 06:53:34;;;;;;;20.98;10.18;;;8.30;99.90;;;;;;5112958;28;20073;-65
2022/11/25 06:56:20;;;;;;;30.95;9.20;;;8.30;99.90;;;;;;5113047;28;20447;-66
2022/11/25 06:58:47;;;;;;;25.55;8.63;;;8.30;99.90;;;;;;5113033;28;20048;-66
2022/11/25 07:01:22;;;;;;;25.13;8.85;;;8.20;99.90;;;;;;5112728;28;20506;-65
2022/11/25 07:03:50;;;;;;;25.17;8.90;;;8.10;99.90;;;;;;5112819;28;20051;-66
2022/11/25 07:06:17;;;;;;;30.05;9.95;;;8.30;99.90;;;;;;5113077;28;20035;-65
2022/11/25 07:08:43;;;;;;;20.45;8.80;;;8.20;99.90;;;;;;5112740;28;20439;-65
2022/11/25 07:11:15;;;;;;;21.70;8.68;;;8.30;99.90;;;;;;5112860;28;20071;-65
2022/11/25 07:13:41;;;;;;;19.67;7.45;;;8.30;99.90;;;;;;5112701;28;20039;-66
2022/11/25 07:16:07;;;;;;;18.15;7.63;;;8.20;99.90;;;;;;5112718;28;20130;-65
2022/11/25 07:18:35;;;;;;;19.58;7.40;;;8.20;99.90;;;;;;5112794;28;20118;-64
2022/11/25 07:21:12;;;;;;;19.95;7.10;;;8.40;99.90;;;;;;5112446;28;20493;-65
2022/11/25 07:23:38;;;;;;;19.50;6.55;;;8.30;99.90;;;;;;5112480;28;20035;-65
2022/11/25 07:26:15;;;;;;;20.92;7.25;;;8.30;99.90;;;;;;5111497;28;20051;-66
2022/11/25 07:28:41;;;;;;;15.05;5.90;;;8.30;99.90;;;;;;5112326;28;20038;-64
2022/11/25 07:31:10;;;;;;;20.52;6.63;;;8.30;99.90;;;;;;5112620;28;20032;-64
2022/11/25 07:33:36;;;;;;;19.52;6.35;;;8.30;99.90;;;;;;5112504;28;20046;-64
2022/11/25 07:36:07;;;;;;;15.40;6.15;;;8.40;99.90;;;;;;5112549;28;20118;-64
2022/11/25 07:38:33;;;;;;;14.38;5.00;;;8.40;99.90;;;;;;5112409;28;20553;-65
2022/11/25 07:41:05;;;;;;;16.60;5.95;;;8.30;99.90;;;;;;5112447;28;20121;-65
2022/11/25 07:43:31;;;;;;;17.80;5.28;;;8.30;99.90;;;;;;5112537;28;20445;-65
2022/11/25 07:46:06;;;;;;;17.17;5.60;;;8.30;99.90;;;;;;5112514;28;20119;-65
2022/11/25 07:48:31;;;;;;;13.98;5.47;;;8.30;99.90;;;;;;5112335;28;20470;-66
2022/11/25 07:50:57;;;;;;;16.17;5.00;;;8.40;99.90;;;;;;5093755;28;20065;-65
2022/11/25 07:53:22;;;;;;;11.20;4.93;;;8.30;99.90;;;;;;5112217;28;20044;-65
2022/11/25 07:55:48;;;;;;;18.75;5.28;;;8.40;99.90;;;;;;5112441;28;20122;-65
2022/11/25 07:58:14;;;;;;;16.73;5.15;;;8.40;99.90;;;;;;5112279;28;20077;-65
2022/11/25 08:00:39;;;;;;;12.40;4.43;;;8.50;99.90;;;;;;5112201;28;20051;-65
2022/11/25 08:03:05;;;;;;;13.85;4.25;;;8.40;99.90;;;;;;5112448;28;20040;-65
2022/11/25 08:05:32;;;;;;;9.98;4.25;;;8.50;99.90;;;;;;5115301;28;20114;-65
2022/11/25 08:07:58;;;;;;;11.23;3.97;;;8.30;99.90;;;;;;5116079;28;20085;-65
2022/11/25 08:10:23;;;;;;;12.68;4.30;;;8.40;99.90;;;;;;5116367;28;20040;-65
2022/11/25 08:12:49;;;;;;;12.68;3.83;;;8.50;99.90;;;;;;5116262;28;20040;-65
2022/11/25 08:15:15;;;;;;;10.65;3.78;;;8.40;99.90;;;;;;5116198;28;20046;-64
2022/11/25 08:17:40;;;;;;;12.57;4.32;;;8.50;99.90;;;;;;5116192;28;20420;-64
2022/11/25 08:20:06;;;;;;;15.25;3.88;;;8.40;99.90;;;;;;5118963;27;20081;-64
2022/11/25 08:22:32;;;;;;;17.08;5.18;;;8.30;99.90;;;;;;5115055;28;20040;-64
2022/11/25 08:24:58;;;;;;;11.90;3.80;;;8.40;99.90;;;;;;5116409;28;20894;-64
2022/11/25 08:27:23;;;;;;;13.32;4.15;;;8.40;99.90;;;;;;5115629;28;20043;-64
2022/11/25 08:29:49;;;;;;;12.68;4.22;;;8.40;99.90;;;;;;5120026;27;20429;-64
2022/11/25 08:32:15;;;;;;;12.63;4.03;;;8.50;99.90;;;;;;5114403;28;20148;-64
2022/11/25 08:34:41;;;;;;;13.23;3.88;;;8.40;99.90;;;;;;5116035;28;20118;-63
2022/11/25 08:37:07;;;;;;;13.95;3.80;;;8.40;99.90;;;;;;5115797;28;20044;-64
2022/11/25 08:39:33;;;;;;;11.10;3.78;;;8.50;99.90;;;;;;5119530;27;20039;-63
2022/11/25 08:42:03;;;;;;;10.35;3.30;;;8.60;99.90;;;;;;5117738;27;20066;-64
2022/11/25 08:44:29;;;;;;;9.68;3.83;;;8.60;99.90;;;;;;5120173;27;20488;-63
2022/11/25 08:46:54;;;;;;;11.43;4.50;;;8.60;99.90;;;;;;5115471;28;20036;-63
2022/11/25 08:49:20;;;;;;;13.77;4.20;;;8.60;99.90;;;;;;5115494;28;20092;-63
2022/11/25 08:51:47;;;;;;;13.15;3.67;;;8.60;99.90;;;;;;5114685;28;20031;-64
2022/11/25 08:54:13;;;;;;;10.15;3.75;;;8.60;99.90;;;;;;5115512;28;20118;-64
2022/11/25 08:56:39;;;;;;;9.75;4.03;;;8.70;99.90;;;;;;5115494;28;20401;-63
2022/11/25 08:59:05;;;;;;;11.07;3.35;;;8.70;99.90;;;;;;5115449;28;20035;-64
2022/11/25 09:01:31;;;;;;;13.07;3.88;;;8.70;99.90;;;;;;5115179;28;20079;-63
2022/11/25 09:03:57;;;;;;;11.93;3.65;;;8.70;99.90;;;;;;5115175;28;20032;-63
2022/11/25 09:06:25;;;;;;;10.80;3.67;;;8.80;99.90;;;;;;5115053;28;20496;-63
2022/11/25 09:08:55;;;;;;;14.65;3.75;;;8.70;99.90;;;;;;5115078;28;20043;-63
2022/11/25 09:11:20;;;;;;;12.25;4.00;;;8.80;99.90;;;;;;5115287;28;20047;-63
2022/11/25 09:13:46;;;;;;;11.60;5.97;;;8.90;99.90;;;;;;5115118;28;20039;-63
2022/11/25 09:16:12;;;;;;;11.85;4.20;;;8.80;99.90;;;;;;5114677;28;20066;-64
2022/11/25 09:18:38;;;;;;;9.90;4.03;;;8.90;99.90;;;;;;5114646;28;20047;-63
2022/11/25 09:21:13;;;;;;;11.75;4.10;;;8.90;99.90;;;;;;5114826;28;20043;-63
2022/11/25 09:23:39;;;;;;;13.07;3.80;;;8.90;99.90;;;;;;5115014;28;20075;-63
2022/11/25 09:26:06;;;;;;;8.63;4.57;;;8.90;99.90;;;;;;5096425;28;20075;-63
2022/11/25 09:28:31;;;;;;;9.52;3.88;;;9.00;99.90;;;;;;5114636;28;20497;-63
2022/11/25 09:30:57;;;;;;;11.77;4.18;;;9.10;99.90;;;;;;5114790;28;20115;-64
2022/11/25 09:33:23;;;;;;;18.52;4.10;;;9.10;99.90;;;;;;5114667;28;20513;-64
2022/11/25 09:35:49;;;;;;;13.40;3.88;;;9.10;99.90;;;;;;5096672;28;20501;-63
2022/11/25 09:38:15;;;;;;;9.77;3.90;;;9.10;99.90;;;;;;5114684;28;20504;-64
2022/11/25 09:40:47;;;;;;;11.23;3.90;;;9.10;99.90;;;;;;5114680;28;20035;-63
2022/11/25 09:46:50;;;;;;;10.20;4.25;;;9.20;99.90;;;;;;5114550;28;20049;-63
2022/11/25 09:49:19;;;;;;;15.30;3.77;;;9.40;99.90;;;;;;5114619;28;20040;-64
2022/11/25 09:52:00;;;;;;;12.13;3.63;;;9.40;99.90;;;;;;5114384;28;20266;-63
2022/11/25 09:54:35;;;;;;;8.43;3.80;;;9.50;99.90;;;;;;5114414;28;20044;-63
2022/11/25 09:57:22;;;;;;;17.67;4.20;;;9.50;99.90;;;;;;5114262;28;20481;-63
2022/11/25 10:00:11;;;;;;;11.70;3.40;;;9.60;99.90;;;;;;5114348;28;20036;-63
2022/11/25 10:03:09;;;;;;;8.68;4.05;;;9.70;99.90;;;;;;5114296;28;20040;-63
2022/11/25 10:05:40;;;;;;;9.30;3.25;;;9.80;99.90;;;;;;5011445;28;20056;-63
2022/11/25 10:08:11;;;;;;;11.63;3.40;;;9.80;99.90;;;;;;5011678;28;20041;-63
2022/11/25 10:10:46;;;;;;;9.25;3.10;;;9.90;99.90;;;;;;5011511;28;20046;-63
2022/11/25 10:13:27;;;;;;;8.70;3.28;;;9.90;99.90;;;;;;5011429;28;20088;-63
2022/11/25 10:15:56;;;;;;;9.50;3.42;;;10.00;99.90;;;;;;5011301;28;20055;-64
2022/11/25 10:18:39;;;;;;;7.40;3.00;;;9.90;99.90;;;;;;5011397;28;20061;-63
2022/11/25 10:21:05;;;;;;;10.93;3.30;;;10.00;99.90;;;;;;5011280;28;20100;-63
2022/11/25 10:23:34;;;;;;;9.95;3.50;;;10.00;99.90;;;;;;5011022;28;20136;-64
2022/11/25 10:26:13;;;;;;;11.32;3.42;;;10.00;99.90;;;;;;5010984;28;20150;-63
2022/11/25 10:28:40;;;;;;;;;;;10.10;99.90;;;;;;5011451;28;20125;-65
2022/11/25 10:31:14;;;;;;;7.57;3.15;;;10.10;99.90;;;;;;5011155;28;20060;-64
2022/11/25 10:33:46;;;;;;;9.00;3.25;;;10.20;99.90;;;;;;5011018;28;20061;-64
2022/11/25 10:36:25;;;;;;;11.38;5.10;;;10.20;99.90;;;;;;5011097;28;20111;-64
2022/11/25 10:39:16;;;;;;;13.02;3.40;;;10.20;99.90;;;;;;5011174;28;20038;-64
2022/11/25 10:42:10;;;;;;;11.43;3.63;;;10.20;99.90;;;;;;5050470;28;20052;-64
2022/11/25 10:44:39;;;;;;;10.10;3.03;;;10.30;99.90;;;;;;5095208;28;20082;-63
2022/11/25 10:47:34;;;;;;;14.10;3.53;;;10.30;99.90;;;;;;5113637;28;20046;-63
2022/11/25 10:50:33;;;;;;;8.48;3.10;;;10.30;99.90;;;;;;5113351;28;20044;-64
2022/11/25 10:53:21;;;;;;;10.57;3.13;;;10.30;99.90;;;;;;5108949;28;20052;-63
2022/11/25 10:56:16;;;;;;;11.13;3.25;;;10.30;99.90;;;;;;5113089;28;20099;-64
2022/11/25 10:58:41;;;;;;;8.23;2.65;;;10.40;99.90;;;;;;5010344;28;20124;-64
2022/11/25 11:01:15;;;;;;;7.95;3.10;;;10.40;99.90;;;;;;5010480;28;20149;-64
2022/11/25 11:03:49;;;;;;;15.27;2.95;;;10.40;99.90;;;;;;5010554;28;20050;-63
2022/11/25 11:06:36;;;;;;;9.48;3.15;;;10.50;99.90;;;;;;5030088;28;20125;-63
2022/11/25 11:09:02;;;;;;;11.05;2.92;;;10.60;99.90;;;;;;5030015;28;20653;-63
2022/11/25 11:11:28;;;;;;;10.50;2.70;;;10.70;99.90;;;;;;5010305;28;20077;-63
2022/11/25 11:14:18;;;;;;;9.23;2.50;;;10.80;99.90;;;;;;5010372;28;20045;-64
2022/11/25 11:16:52;;;;;;;8.70;2.30;;;10.80;99.90;;;;;;5010161;28;20046;-63
2022/11/25 11:19:26;;;;;;;15.27;4.03;;;10.80;99.90;;;;;;5010325;28;20172;-62
2022/11/25 11:21:55;;;;;;;11.40;3.50;;;10.90;99.90;;;;;;5009348;28;20053;-63
2022/11/25 11:24:36;;;;;;;9.07;2.80;;;11.00;99.90;;;;;;4993200;28;20073;-63
2022/11/25 11:27:18;;;;;;;11.10;2.95;;;11.10;99.90;;;;;;5009855;28;20054;-62
2022/11/25 11:29:43;;;;;;;11.40;4.03;;;11.10;99.90;;;;;;5014864;28;20050;-63
2022/11/25 11:32:21;;;;;;;11.95;2.75;;;11.30;99.90;;;;;;5023596;28;20080;-63
2022/11/25 11:35:02;;;;;;;10.40;3.15;;;11.30;99.90;;;;;;5027492;28;20502;-63
2022/11/25 11:37:47;;;;;;;11.20;3.78;;;11.40;99.90;;;;;;5094135;28;20076;-62
2022/11/25 11:40:33;;;;;;;10.00;2.97;;;11.50;99.90;;;;;;5111643;28;20043;-62
2022/11/25 11:43:26;;;;;;;10.45;3.08;;;11.70;99.90;;;;;;5112572;28;20047;-62
2022/11/25 11:46:23;;;;;;;14.43;2.88;;;11.80;99.90;;;;;;5094531;28;20046;-62
2022/11/25 11:48:54;;;;;;;11.40;2.85;;;11.90;99.90;;;;;;5112235;28;20109;-62
2022/11/25 11:51:29;;;;;;;12.57;3.22;;;11.80;99.90;;;;;;5112215;28;20047;-63
2022/11/25 11:54:06;;;;;;;14.38;2.80;;;11.70;99.90;;;;;;5112464;28;20036;-62
2022/11/25 11:56:53;;;;;;;9.07;2.58;;;11.50;99.90;;;;;;5112337;28;20036;-62
2022/11/25 11:59:45;;;;;;;9.85;3.13;;;11.40;99.90;;;;;;5112249;28;20043;-62
2022/11/25 12:02:16;;;;;;;12.20;4.05;;;11.40;99.90;;;;;;5093805;28;20052;-63
2022/11/25 12:04:54;;;;;;;7.05;2.72;;;11.50;99.90;;;;;;5112262;28;20040;-63
2022/11/25 12:07:29;;;;;;;7.18;2.13;;;11.50;99.90;;;;;;5112210;28;20413;-63
2022/11/25 12:10:00;;;;;;;12.57;2.90;;;11.50;99.90;;;;;;5111983;28;20521;-64
2022/11/25 12:12:39;;;;;;;9.50;2.63;;;11.50;99.90;;;;;;5112168;28;20123;-64
2022/11/25 12:15:36;;;;;;;9.70;2.80;;;11.40;99.90;;;;;;5112118;28;20411;-64
2022/11/25 12:18:10;;;;;;;15.82;3.10;;;11.50;99.90;;;;;;5012819;28;20499;-64
2022/11/25 12:20:53;;;;;;;11.00;3.00;;;11.40;99.90;;;;;;5029272;28;20125;-64
2022/11/25 12:23:39;;;;;;;10.13;2.30;;;11.40;99.90;;;;;;5021216;28;20042;-64
2022/11/25 12:26:14;;;;;;;15.82;3.20;;;11.40;99.90;;;;;;5008211;28;20125;-64
2022/11/25 12:29:08;;;;;;;14.07;3.35;;;11.40;99.90;;;;;;4993791;28;20046;-64
2022/11/25 12:31:48;;;;;;;11.20;2.85;;;11.50;99.90;;;;;;5007788;28;20054;-64
2022/11/25 12:34:27;;;;;;;16.17;3.75;;;11.50;99.90;;;;;;5009598;28;20042;-63
2022/11/25 12:37:06;;;;;;;12.52;2.60;;;11.50;99.90;;;;;;5009528;28;20038;-64
2022/11/25 12:39:35;;;;;;;18.73;2.78;;;11.40;99.90;;;;;;4993147;28;20034;-64
2022/11/25 12:42:04;;;;;;;16.80;3.05;;;11.40;99.90;;;;;;5009371;28;20045;-64
2022/11/25 12:45:08;;;;;;;16.83;3.58;;;11.40;99.90;;;;;;5009381;28;20038;-63
2022/11/25 12:47:34;;;;;;;10.10;2.33;;;11.40;99.90;;;;;;4989496;28;20581;-63
2022/11/25 12:50:00;;;;;;;13.68;2.97;;;11.20;99.90;;;;;;4990275;28;20125;-64
2022/11/25 12:53:01;;;;;;;13.02;2.92;;;11.20;99.90;;;;;;4992518;28;20524;-64
2022/11/25 12:55:27;;;;;;;21.25;3.78;;;11.30;99.90;;;;;;5038463;28;20045;-63
2022/11/25 12:57:58;;;;;;;16.42;3.25;;;11.20;99.90;;;;;;5051781;28;20182;-63
2022/11/25 13:00:35;;;;;;;14.60;3.25;;;11.20;99.90;;;;;;5052350;28;20131;-64
2022/11/25 13:03:03;;;;;;;13.38;2.88;;;11.30;99.90;;;;;;5052112;28;20080;-64
2022/11/25 13:05:58;;;;;;;17.38;3.17;;;11.30;99.90;;;;;;5052204;28;20060;-64
2022/11/25 13:08:50;;;;;;;16.90;3.28;;;11.40;99.90;;;;;;5052234;28;20037;-64
2022/11/25 13:11:47;;;;;;;18.67;2.80;;;11.40;99.90;;;;;;5052081;28;20562;-64